Time;durP1;ratioP1;P1;durP2;ratioP2;P2;SDS_P1;SDS_P2;PMS_P1;PMS_P2;Temp;Humidity;BMP_temperature;BMP_pressure;BME280_temperature;BME280_humidity;BME280_pressure;Samples;Min_cycle;Max_cycle;Signal;HPM_P1;HPM_P2
2022/08/26 00:01:39;;;;;;;4.53;1.33;;;;;;;24.03;62.22;101718.72;5988046;23;20577;-70
2022/08/26 00:04:10;;;;;;;7.35;1.48;;;;;;;23.95;62.63;101723.44;6019340;23;20411;-69
2022/08/26 00:06:36;;;;;;;5.57;1.58;;;;;;;23.78;63.14;101723.91;6019874;23;20015;-70
2022/08/26 00:09:03;;;;;;;6.38;1.40;;;;;;;23.93;62.42;101719.03;6020801;23;20018;-70
2022/08/26 00:11:34;;;;;;;6.65;1.38;;;;;;;23.44;64.73;101721.22;5997423;23;20013;-71
2022/08/26 00:14:00;;;;;;;7.80;1.38;;;;;;;23.64;64.54;101730.50;5998237;23;20021;-70
2022/08/26 00:16:27;;;;;;;7.72;1.40;;;;;;;23.62;64.75;101730.53;5984634;23;20493;-70
2022/08/26 00:18:52;;;;;;;5.35;1.27;;;;;;;23.70;64.62;101727.69;6022118;23;20022;-70
2022/08/26 00:21:18;;;;;;;5.88;1.30;;;;;;;23.74;64.64;101730.22;6022623;23;20014;-71
2022/08/26 00:23:45;;;;;;;6.57;1.38;;;;;;;23.73;64.77;101727.59;5996467;23;20083;-71
2022/08/26 00:26:12;;;;;;;4.60;1.38;;;;;;;23.66;65.07;101726.03;6009565;23;20375;-72
2022/08/26 00:28:37;;;;;;;7.72;1.55;;;;;;;23.77;64.65;101724.81;6025440;23;20011;-70
2022/08/26 00:31:03;;;;;;;6.78;1.40;;;;;;;23.79;64.59;101722.09;5994882;23;20340;-70
2022/08/26 00:33:28;;;;;;;6.03;1.50;;;;;;;23.79;64.58;101725.63;6019519;23;20014;-70
2022/08/26 00:35:54;;;;;;;6.28;1.38;;;;;;;23.79;64.72;101722.09;6028259;23;20021;-68
2022/08/26 00:38:21;;;;;;;4.53;1.40;;;;;;;23.64;65.26;101728.72;6000100;23;20011;-69
2022/08/26 00:40:50;;;;;;;7.13;1.40;;;;;;;23.78;64.36;101721.25;6023562;23;20439;-70
2022/08/26 00:43:17;;;;;;;3.10;1.10;;;;;;;23.78;64.29;101723.91;6031455;23;20017;-69
2022/08/26 00:45:59;;;;;;;5.45;1.35;;;;;;;23.69;64.66;101739.25;6008496;23;20026;-70
2022/08/26 00:48:26;;;;;;;5.45;1.13;;;;;;;;;;6019858;23;20221;-70
2022/08/26 00:51:24;;;;;;;6.32;1.30;;;;;;;23.82;64.00;101733.53;6022280;23;20014;-70
2022/08/26 00:53:54;;;;;;;6.80;1.25;;;;;;;23.79;63.86;101738.06;6012136;23;20011;-71
2022/08/26 00:56:37;;;;;;;4.78;1.33;;;;;;;23.76;63.84;101738.16;6011845;23;20454;-70
2022/08/26 00:59:06;;;;;;;4.55;1.20;;;;;;;23.79;64.26;101743.38;6020279;23;20066;-71
2022/08/26 01:01:32;;;;;;;6.63;1.52;;;;;;;23.78;64.20;101728.34;6021962;23;20015;-70
2022/08/26 01:03:58;;;;;;;6.60;1.10;;;;;;;23.75;64.12;101739.06;6020457;23;20017;-71
2022/08/26 01:06:26;;;;;;;6.63;1.20;;;;;;;23.74;63.65;101724.00;6019963;23;20691;-70
2022/08/26 01:08:52;;;;;;;4.30;1.10;;;;;;;23.66;63.80;101731.34;6010675;23;20018;-71
2022/08/26 01:11:19;;;;;;;5.32;1.20;;;;;;;23.57;64.03;101729.81;6022058;23;20745;-70
2022/08/26 01:13:46;;;;;;;6.53;1.27;;;;;;;23.55;64.03;101731.63;6023211;23;20466;-72
2022/08/26 01:16:14;;;;;;;4.88;1.30;;;;;;;23.72;63.46;101724.06;6013307;23;20112;-72
2022/08/26 01:18:40;;;;;;;4.93;1.42;;;;;;;;;;6021082;23;20007;-71
2022/08/26 01:21:13;;;;;;;7.20;1.52;;;;;;;23.61;63.23;101720.81;6007671;23;20018;-71
2022/08/26 01:23:48;;;;;;;10.45;1.60;;;;;;;23.77;63.00;101724.81;6022702;23;20443;-70
2022/08/26 01:26:28;;;;;;;5.63;1.30;;;;;;;23.77;62.51;101722.16;6003690;23;20033;-70
2022/08/26 01:28:59;;;;;;;8.02;1.80;;;;;;;23.70;63.08;101731.22;6024048;23;20006;-70
2022/08/26 01:31:33;;;;;;;6.57;1.60;;;;;;;23.67;63.05;101723.31;5993441;23;20054;-70
2022/08/26 01:34:09;;;;;;;5.75;1.60;;;;;;;23.69;63.06;101736.56;6017451;23;20046;-70
2022/08/26 01:36:36;;;;;;;5.13;1.52;;;;;;;23.71;62.80;101740.97;6020935;23;20114;-71
2022/08/26 01:39:03;;;;;;;5.47;1.63;;;;;;;23.77;62.44;101729.25;6015114;23;20018;-70
2022/08/26 01:41:30;;;;;;;5.15;1.42;;;;;;;23.59;63.00;101737.75;6026001;23;20044;-70
2022/08/26 01:43:56;;;;;;;4.20;1.52;;;;;;;23.67;62.54;101738.41;6022502;23;20155;-70
2022/08/26 01:46:23;;;;;;;5.88;1.52;;;;;;;23.69;62.46;101740.13;6016883;23;20030;-70
2022/08/26 01:48:51;;;;;;;4.50;1.30;;;;;;;23.52;62.55;101739.69;6026296;23;20943;-70
2022/08/26 01:51:19;;;;;;;6.47;1.30;;;;;;;23.59;62.64;101741.28;6020653;23;20062;-71
2022/08/26 01:53:45;;;;;;;4.97;1.38;;;;;;;23.66;61.90;101744.66;6012822;23;20007;-71
2022/08/26 01:56:11;;;;;;;6.32;1.30;;;;;;;23.65;62.08;101750.91;6016557;23;20190;-71
2022/08/26 01:59:03;;;;;;;11.55;1.60;;;;;;;23.59;62.37;101751.06;6017762;23;20093;-70
2022/08/26 02:01:28;;;;;;;6.28;1.45;;;;;;;23.56;62.76;101743.13;6002718;23;20032;-70
2022/08/26 02:04:16;;;;;;;5.57;1.30;;;;;;;23.60;62.23;101751.03;6020519;23;20851;-70
2022/08/26 02:06:43;;;;;;;5.70;1.20;;;;;;;23.63;62.22;101742.94;6023229;23;20014;-70
2022/08/26 02:09:10;;;;;;;6.60;1.33;;;;;;;23.45;62.88;101743.41;6014918;23;20094;-70
2022/08/26 02:11:35;;;;;;;6.38;1.40;;;;;;;23.48;62.76;101748.69;6019625;23;20043;-70
2022/08/26 02:14:21;;;;;;;4.15;1.35;;;;;;;23.50;62.06;101738.84;6016319;23;20390;-70
2022/08/26 02:16:49;;;;;;;7.93;1.40;;;;;;;23.45;62.44;101738.06;6021972;23;20034;-70
2022/08/26 02:19:19;;;;;;;5.68;1.20;;;;;;;23.53;62.11;101735.25;6014936;23;20967;-70
2022/08/26 02:21:47;;;;;;;2.53;0.98;;;;;;;23.45;61.86;101738.06;6021777;23;20053;-71
2022/08/26 02:24:19;;;;;;;4.05;1.23;;;;;;;23.50;62.25;101740.66;6006553;23;20399;-70
2022/08/26 02:26:47;;;;;;;4.70;1.20;;;;;;;23.48;61.72;101738.03;6016100;23;20466;-70
2022/08/26 02:29:36;;;;;;;6.15;1.33;;;;;;;23.49;61.70;101736.22;6022028;23;20015;-71
2022/08/26 02:32:01;;;;;;;5.30;1.10;;;;;;;23.47;61.73;101732.75;6021246;23;20019;-70
2022/08/26 02:34:31;;;;;;;5.03;1.20;;;;;;;23.34;62.24;101734.81;6006061;23;20305;-70
2022/08/26 02:36:59;;;;;;;5.95;1.40;;;;;;;23.39;61.85;101741.78;6021142;23;21022;-70
2022/08/26 02:39:24;;;;;;;5.70;1.33;;;;;;;23.29;62.28;101748.25;6016080;23;20201;-70
2022/08/26 02:41:50;;;;;;;6.03;1.17;;;;;;;23.31;62.74;101750.84;6024669;23;20034;-70
2022/08/26 02:44:16;;;;;;;6.18;1.20;;;;;;;23.37;62.02;101750.69;6004846;23;20035;-70
2022/08/26 02:46:42;;;;;;;7.43;1.40;;;;;;;23.32;62.48;101749.94;6022520;23;20011;-71
2022/08/26 02:49:08;;;;;;;4.47;1.30;;;;;;;23.31;62.49;101748.19;6014626;23;20007;-70
2022/08/26 02:51:34;;;;;;;5.88;1.15;;;;;;;23.23;62.61;101744.88;6018752;23;20011;-71
2022/08/26 02:54:00;;;;;;;4.63;1.20;;;;;;;23.22;62.55;101744.00;6014651;23;20459;-71
2022/08/26 02:56:25;;;;;;;5.57;1.20;;;;;;;23.18;62.57;101744.09;6012687;23;20006;-71
2022/08/26 02:58:51;;;;;;;6.47;1.30;;;;;;;23.25;62.79;101743.03;6013859;23;20003;-70
2022/08/26 03:01:29;;;;;;;5.38;1.40;;;;;;;23.25;62.36;101745.69;6027979;23;20514;-70
2022/08/26 03:03:55;;;;;;;3.28;1.17;;;;;;;23.24;62.38;101746.59;6019039;23;20014;-70
2022/08/26 03:06:21;;;;;;;2.75;1.00;;;;;;;23.27;62.15;101751.84;6013606;23;20343;-70
2022/08/26 03:08:46;;;;;;;3.05;1.00;;;;;;;23.23;63.13;101747.53;6014386;23;20625;-71
2022/08/26 03:11:12;;;;;;;5.15;1.15;;;;;;;23.22;63.04;101737.81;6032849;23;20018;-71
2022/08/26 03:13:38;;;;;;;5.07;1.10;;;;;;;23.39;62.26;101744.44;6021438;23;20113;-69
2022/08/26 03:16:07;;;;;;;4.72;1.02;;;;;;;23.36;62.55;101743.66;6020852;23;20015;-70
2022/08/26 03:18:33;;;;;;;4.93;1.10;;;;;;;23.40;62.51;101740.88;6016459;23;20074;-71
2022/08/26 03:21:10;;;;;;;3.90;1.30;;;;;;;23.40;62.73;101740.88;6010665;23;20015;-70
2022/08/26 03:23:38;;;;;;;2.65;1.17;;;;;;;23.43;62.59;101734.56;6012267;23;20014;-70
2022/08/26 03:26:05;;;;;;;6.38;1.20;;;;;;;23.36;62.78;101720.56;6018185;23;20015;-70
2022/08/26 03:28:31;;;;;;;4.82;1.20;;;;;;;23.42;63.10;101724.88;6010630;23;20451;-70
2022/08/26 03:30:57;;;;;;;5.18;1.13;;;;;;;23.48;63.13;101721.19;6029746;23;20011;-70
2022/08/26 03:33:24;;;;;;;5.13;1.25;;;;;;;23.46;62.74;101721.19;5997532;23;20542;-71
2022/08/26 03:35:51;;;;;;;5.18;1.20;;;;;;;23.40;63.07;101719.56;5997137;23;20014;-69
2022/08/26 03:38:22;;;;;;;5.55;1.30;;;;;;;23.42;63.07;101717.72;6007382;23;20015;-70
2022/08/26 03:40:47;;;;;;;5.57;1.17;;;;;;;23.40;62.54;101722.25;6021299;23;20490;-69
2022/08/26 03:43:15;;;;;;;6.40;1.30;;;;;;;23.30;63.04;101723.38;6028793;23;20080;-70
2022/08/26 03:45:41;;;;;;;3.90;0.93;;;;;;;23.26;62.79;101719.06;6010274;23;20022;-69
2022/08/26 03:48:07;;;;;;;4.45;1.23;;;;;;;23.19;63.30;101721.91;5993742;23;20119;-70
2022/08/26 03:50:33;;;;;;;3.17;0.90;;;;;;;23.21;62.95;101728.94;6011877;23;20070;-71
2022/08/26 03:52:58;;;;;;;4.13;1.10;;;;;;;23.10;62.99;101720.38;6027504;23;20011;-71
2022/08/26 03:55:30;;;;;;;6.45;1.10;;;;;;;23.15;62.47;101725.56;6026675;23;20728;-70
2022/08/26 03:57:56;;;;;;;5.78;1.35;;;;;;;23.18;62.84;101718.34;6014170;23;20011;-70
2022/08/26 04:00:22;;;;;;;5.55;1.20;;;;;;;23.12;62.74;101722.97;6021388;23;20018;-70
2022/08/26 04:02:49;;;;;;;3.35;1.10;;;;;;;23.00;63.56;101716.16;6013019;23;20045;-70
2022/08/26 04:05:17;;;;;;;3.13;1.05;;;;;;;23.16;62.32;101714.88;6025781;23;20075;-70
2022/08/26 04:07:43;;;;;;;3.08;1.00;;;;;;;23.24;62.40;101717.31;6018826;23;20094;-71
2022/08/26 04:10:11;;;;;;;2.20;0.90;;;;;;;23.23;61.93;101713.81;6014213;23;20529;-71
2022/08/26 04:12:37;;;;;;;3.60;0.98;;;;;;;23.29;61.85;101718.09;6015937;23;20625;-71
2022/08/26 04:15:09;;;;;;;3.30;0.88;;;;;;;23.20;62.77;101711.22;6022817;23;20037;-71
2022/08/26 04:17:35;;;;;;;6.05;1.00;;;;;;;23.23;62.41;101719.16;6023733;23;20010;-71
2022/08/26 04:20:01;;;;;;;4.82;1.10;;;;;;;23.22;62.66;101722.72;6021696;23;20007;-71
2022/08/26 04:22:32;;;;;;;5.28;1.00;;;;;;;23.40;62.33;101721.34;5999771;23;20022;-70
2022/08/26 04:24:59;;;;;;;6.32;1.05;;;;;;;23.48;62.03;101722.06;6025707;23;20011;-70
2022/08/26 04:27:24;;;;;;;3.78;0.98;;;;;;;23.45;61.52;101722.09;6031504;23;20073;-71
2022/08/26 04:29:50;;;;;;;4.55;1.08;;;;;;;23.55;60.88;101715.66;6013716;23;20089;-70
2022/08/26 04:32:16;;;;;;;6.50;1.30;;;;;;;23.55;60.92;101714.78;6019565;23;20022;-70
2022/08/26 04:34:41;;;;;;;5.03;1.15;;;;;;;23.54;61.02;101719.25;6009893;23;20306;-70
2022/08/26 04:37:07;;;;;;;4.82;1.17;;;;;;;23.55;61.28;101715.66;6028648;23;20007;-70
2022/08/26 04:39:33;;;;;;;5.00;1.10;;;;;;;23.54;61.92;101715.72;6016648;23;20007;-71
2022/08/26 04:41:59;;;;;;;6.03;1.23;;;;;;;23.56;61.86;101717.41;6021853;23;20467;-71
2022/08/26 04:44:28;;;;;;;7.07;1.35;;;;;;;23.42;62.18;101725.72;5984077;23;20006;-70
2022/08/26 04:46:55;;;;;;;7.50;1.30;;;;;;;23.32;62.09;101726.88;5992592;23;20018;-69
2022/08/26 04:49:21;;;;;;;5.78;1.35;;;;;;;23.46;62.28;101726.53;6016014;23;20011;-70
2022/08/26 04:51:47;;;;;;;6.45;1.00;;;;;;;23.57;61.65;101736.91;6002056;23;20022;-70
2022/08/26 04:54:13;;;;;;;9.88;1.20;;;;;;;23.58;61.69;101738.66;6003959;23;20014;-71
2022/08/26 04:56:41;;;;;;;7.18;1.20;;;;;;;23.45;61.95;101738.06;6020750;23;20055;-70
2022/08/26 04:59:10;;;;;;;6.90;1.30;;;;;;;23.46;61.53;101739.81;6005180;23;20074;-71
2022/08/26 05:01:37;;;;;;;6.72;1.27;;;;;;;23.44;61.66;101733.66;6023353;23;20014;-70
2022/08/26 05:04:11;;;;;;;3.97;1.05;;;;;;;23.37;61.79;101746.25;6017567;23;20089;-70
2022/08/26 05:06:37;;;;;;;6.90;1.05;;;;;;;23.43;61.22;101746.09;6013839;23;20395;-70
2022/08/26 05:09:03;;;;;;;4.68;1.13;;;;;;;23.44;60.86;101742.53;6027237;23;20026;-70
2022/08/26 05:11:32;;;;;;;6.43;1.15;;;;;;;23.40;61.15;101746.19;5995283;23;20051;-71
2022/08/26 05:13:57;;;;;;;6.70;1.40;;;;;;;23.40;61.20;101740.00;6023304;23;20011;-71
2022/08/26 05:16:25;;;;;;;5.20;1.08;;;;;;;23.47;60.72;101746.06;6021783;23;20693;-71
2022/08/26 05:18:53;;;;;;;3.90;1.23;;;;;;;23.40;60.92;101751.50;6022961;23;20331;-70
2022/08/26 05:21:22;;;;;;;7.95;1.10;;;;;;;23.22;60.75;101744.00;6023153;23;20865;-71
2022/08/26 05:23:50;;;;;;;4.95;1.00;;;;;;;23.47;60.33;101741.63;5981198;23;20613;-71
2022/08/26 05:26:21;;;;;;;4.97;1.02;;;;;;;23.22;61.07;101751.09;6011070;23;20443;-72
2022/08/26 05:28:47;;;;;;;5.32;1.13;;;;;;;23.15;60.85;101752.16;6017226;23;20045;-71
2022/08/26 05:31:33;;;;;;;4.97;1.00;;;;;;;23.45;60.23;101756.72;5998984;23;20043;-70
2022/08/26 05:34:00;;;;;;;8.65;1.05;;;;;;;23.53;60.34;101757.44;6026248;23;20018;-69
2022/08/26 05:36:28;;;;;;;4.65;1.02;;;;;;;23.70;60.04;101760.50;5980652;23;20003;-70
2022/08/26 05:38:55;;;;;;;6.13;0.90;;;;;;;23.76;59.62;101764.78;6000600;23;20021;-71
2022/08/26 05:41:29;;;;;;;7.97;1.38;;;;;;;23.77;59.48;101754.09;6015512;23;20011;-70
2022/08/26 05:43:56;;;;;;;3.85;1.00;;;;;;;23.56;60.33;101760.00;6019678;23;20009;-69
2022/08/26 05:46:23;;;;;;;6.97;1.05;;;;;;;23.44;60.33;101754.94;6009216;23;20013;-70
2022/08/26 05:48:48;;;;;;;9.60;1.50;;;;;;;23.52;59.93;101763.66;6017331;23;20575;-70
2022/08/26 05:51:14;;;;;;;4.82;1.00;;;;;;;23.52;59.71;101761.00;6021071;23;20102;-70
2022/08/26 05:53:41;;;;;;;3.55;0.98;;;;;;;23.49;60.22;101760.19;6022931;23;20042;-70
2022/08/26 05:56:09;;;;;;;4.30;0.88;;;;;;;23.80;59.24;101771.78;5980192;23;20432;-71
2022/08/26 05:58:36;;;;;;;5.57;1.05;;;;;;;23.88;58.86;101768.91;6028250;23;20442;-71
2022/08/26 06:01:09;;;;;;;4.32;0.93;;;;;;;23.98;59.10;101779.25;5963440;23;20047;-70
2022/08/26 06:03:43;;;;;;;5.90;1.38;;;;;;;23.65;59.79;101773.06;6025956;23;20363;-70
2022/08/26 06:06:12;;;;;;;3.90;1.10;;;;;;;23.84;59.25;101776.13;6011580;23;20026;-70
2022/08/26 06:08:38;;;;;;;2.45;0.80;;;;;;;23.79;59.01;101764.69;5997564;23;20459;-71
2022/08/26 06:11:10;;;;;;;7.47;1.17;;;;;;;23.78;59.02;101768.28;6023057;23;20033;-70
2022/08/26 06:13:38;;;;;;;5.00;1.00;;;;;;;23.99;58.71;101767.69;6024327;23;20472;-70
2022/08/26 06:16:11;;;;;;;6.75;1.02;;;;;;;24.03;58.48;101771.16;6013790;23;20665;-70
2022/08/26 06:18:38;;;;;;;;;;;;;;;23.84;58.82;101786.78;6016569;23;20082;-71
2022/08/26 06:21:25;;;;;;;6.43;0.85;;;;;;;23.72;58.96;101781.78;6016450;23;20581;-71
2022/08/26 06:26:38;;;;;;;4.78;0.90;;;;;;;23.71;59.04;101793.34;6026783;23;20569;-70
2022/08/26 06:29:04;;;;;;;3.25;0.95;;;;;;;23.84;58.67;101795.63;6021780;23;20301;-71
2022/08/26 06:31:31;;;;;;;6.53;1.10;;;;;;;23.68;58.82;101798.72;6000001;23;20018;-71
2022/08/26 06:33:57;;;;;;;4.78;1.20;;;;;;;23.88;58.78;101804.41;6019285;23;20062;-71
2022/08/26 06:36:27;;;;;;;6.43;1.25;;;;;;;23.93;58.54;101807.81;6015079;23;20495;-70
2022/08/26 06:38:54;;;;;;;3.72;0.80;;;;;;;23.92;59.03;101806.06;6021799;23;20376;-70
2022/08/26 06:41:21;;;;;;;6.00;1.10;;;;;;;23.90;59.09;101805.25;6025988;23;20029;-70
2022/08/26 06:43:48;;;;;;;6.53;0.98;;;;;;;23.92;58.41;101802.53;6008191;23;20413;-70
2022/08/26 06:46:16;;;;;;;3.72;0.90;;;;;;;24.02;57.83;101806.69;6015788;23;20007;-70
2022/08/26 06:48:45;;;;;;;3.60;0.80;;;;;;;23.99;57.53;101809.44;6016896;23;20022;-71
2022/08/26 06:51:20;;;;;;;4.72;0.85;;;;;;;23.89;58.40;101803.50;6020556;23;20279;-72
2022/08/26 06:53:47;;;;;;;6.45;1.05;;;;;;;23.94;57.66;101806.91;6013338;23;20034;-71
2022/08/26 06:56:15;;;;;;;3.42;0.90;;;;;;;23.89;58.32;101814.16;6010742;23;20265;-70
2022/08/26 06:58:41;;;;;;;3.22;0.70;;;;;;;24.05;57.28;101803.94;6024712;23;20292;-71
2022/08/26 07:01:16;;;;;;;4.13;1.02;;;;;;;23.85;58.34;101810.69;6021314;23;20007;-70
2022/08/26 07:03:41;;;;;;;4.88;0.90;;;;;;;23.74;58.63;101820.75;6020700;23;20409;-72
2022/08/26 07:06:08;;;;;;;4.25;0.90;;;;;;;23.86;58.35;101817.75;6013883;23;20078;-70
2022/08/26 07:08:34;;;;;;;5.22;1.13;;;;;;;23.78;58.40;101810.91;6018433;23;20018;-69
2022/08/26 07:11:04;;;;;;;5.63;0.95;;;;;;;23.77;58.42;101810.03;6016205;23;20007;-70
2022/08/26 07:13:29;;;;;;;4.05;1.00;;;;;;;23.69;58.63;101821.78;6026138;23;20014;-71
2022/08/26 07:15:56;;;;;;;4.00;0.75;;;;;;;23.95;57.44;101821.09;6017820;23;20433;-69
2022/08/26 07:18:22;;;;;;;5.10;0.90;;;;;;;23.92;58.08;101827.38;6017052;23;20435;-71
2022/08/26 07:20:47;;;;;;;3.28;0.88;;;;;;;23.93;57.82;101826.47;6011906;23;20434;-70
2022/08/26 07:23:13;;;;;;;7.65;1.05;;;;;;;23.92;57.91;101834.47;6026192;23;20018;-70
2022/08/26 07:25:41;;;;;;;8.05;0.93;;;;;;;23.59;58.20;101828.25;6016974;23;20011;-71
2022/08/26 07:28:07;;;;;;;5.53;1.00;;;;;;;23.86;57.97;101828.41;6018790;23;20444;-71
2022/08/26 07:30:39;;;;;;;3.13;0.80;;;;;;;23.96;57.23;101831.72;6017338;23;20022;-70
2022/08/26 07:33:05;;;;;;;3.58;1.00;;;;;;;23.91;57.61;101827.44;6024136;23;20014;-70
2022/08/26 07:35:31;;;;;;;4.78;0.93;;;;;;;23.91;57.26;101830.09;6021361;23;20451;-71
2022/08/26 07:37:56;;;;;;;6.32;1.27;;;;;;;23.97;56.84;101840.59;5995582;23;20015;-70
2022/08/26 07:40:22;;;;;;;4.05;0.80;;;;;;;24.09;57.19;101845.59;5980964;23;20015;-72
2022/08/26 07:42:48;;;;;;;4.95;0.80;;;;;;;24.23;56.20;101851.41;5996896;23;20048;-71
2022/08/26 07:45:14;;;;;;;2.13;0.82;;;;;;;24.26;56.00;101859.34;6016770;23;20110;-70
2022/08/26 07:47:40;;;;;;;5.72;1.13;;;;;;;24.25;56.49;101863.78;6026354;23;20616;-71
2022/08/26 07:50:05;;;;;;;5.00;0.90;;;;;;;24.19;56.69;101855.09;5985409;23;20072;-70
2022/08/26 07:52:31;;;;;;;8.20;1.00;;;;;;;23.99;57.31;101868.03;5995213;23;20015;-70
2022/08/26 07:55:00;;;;;;;7.00;0.98;;;;;;;24.19;56.21;101855.09;6012302;23;20015;-71
2022/08/26 07:57:28;;;;;;;4.70;1.00;;;;;;;24.29;56.41;101853.91;6024888;23;20007;-69
2022/08/26 07:59:54;;;;;;;7.13;0.90;;;;;;;24.13;55.94;101858.78;5997798;23;20118;-71
2022/08/26 08:02:21;;;;;;;3.22;0.68;;;;;;;24.19;55.90;101857.75;6010831;23;20010;-71
2022/08/26 08:04:47;;;;;;;3.15;0.70;;;;;;;24.48;54.37;101856.94;6020076;23;20006;-70
2022/08/26 08:07:12;;;;;;;3.83;0.80;;;;;;;24.54;54.78;101857.63;6018884;23;20014;-70
2022/08/26 08:09:38;;;;;;;2.28;0.80;;;;;;;24.71;54.16;101848.25;6022888;23;20078;-69
2022/08/26 08:12:05;;;;;;;5.38;0.73;;;;;;;24.73;53.91;101849.97;6011363;23;20427;-72
2022/08/26 08:14:31;;;;;;;3.58;0.75;;;;;;;24.91;53.48;101846.78;5983954;23;20014;-71
2022/08/26 08:17:00;;;;;;;3.45;0.80;;;;;;;25.06;53.14;101858.78;5997328;23;20014;-76
2022/08/26 08:19:26;;;;;;;1.55;0.60;;;;;;;25.23;51.79;101872.47;5985837;23;20384;-71
2022/08/26 08:21:51;;;;;;;4.32;0.75;;;;;;;25.32;51.86;101864.16;6027208;23;20057;-71
2022/08/26 08:24:17;;;;;;;5.18;0.88;;;;;;;25.51;52.18;101860.88;5967860;23;20019;-70
2022/08/26 08:26:42;;;;;;;3.33;0.95;;;;;;;25.78;51.80;101868.91;6016164;23;20011;-70
2022/08/26 08:29:07;;;;;;;5.18;0.60;;;;;;;25.89;51.67;101864.97;6019393;23;20419;-69
2022/08/26 08:31:34;;;;;;;5.07;0.70;;;;;;;25.87;49.72;101873.03;6007602;23;20071;-70
2022/08/26 08:34:00;;;;;;;4.05;0.60;;;;;;;25.49;49.72;101868.09;6001183;23;20034;-71
2022/08/26 08:36:29;;;;;;;4.85;0.68;;;;;;;25.01;50.56;101866.03;6001844;23;20011;-72
2022/08/26 08:38:55;;;;;;;4.35;0.73;;;;;;;25.56;50.43;101873.16;5992143;23;20090;-71
2022/08/26 08:41:30;;;;;;;2.53;0.60;;;;;;;25.99;49.56;101869.94;6023330;23;20785;-71
2022/08/26 08:43:59;;;;;;;3.58;0.68;;;;;;;26.09;48.10;101870.50;6025981;23;20022;-71
2022/08/26 08:46:25;;;;;;;4.90;0.90;;;;;;;25.85;48.74;101872.25;5992079;23;20394;-71
2022/08/26 08:48:56;;;;;;;6.13;0.70;;;;;;;25.29;49.75;101869.59;6020516;23;20014;-69
2022/08/26 08:51:52;;;;;;;2.10;0.80;;;;;;;25.65;49.91;101861.34;6001259;23;20018;-69
2022/08/26 08:54:18;;;;;;;3.58;0.88;;;;;;;25.23;50.65;101864.47;6016398;23;20018;-69
2022/08/26 08:56:58;;;;;;;7.38;0.80;;;;;;;25.04;50.87;101868.63;5979928;23;20613;-69
2022/08/26 08:59:30;;;;;;;2.60;0.70;;;;;;;24.91;50.74;101875.25;6000676;23;20011;-71
2022/08/26 09:02:19;;;;;;;3.20;0.60;;;;;;;24.65;51.85;101873.31;5994256;23;20014;-70
2022/08/26 09:05:06;;;;;;;4.70;0.75;;;;;;;24.82;52.65;101873.72;6004379;23;20435;-70
2022/08/26 09:07:43;;;;;;;4.32;0.93;;;;;;;25.03;52.77;101880.22;6018946;23;20064;-72
2022/08/26 09:10:36;;;;;;;2.30;0.80;;;;;;;25.31;51.73;101883.75;6007722;23;20014;-71
2022/08/26 09:13:08;;;;;;;4.95;0.93;;;;;;;25.23;52.13;101874.25;5995234;23;20526;-70
2022/08/26 09:16:30;;;;;;;5.05;1.05;;;;;;;25.16;52.95;101872.69;6011069;23;20014;-70
2022/08/26 09:19:14;;;;;;;5.20;1.20;;;;;;;25.14;52.80;101877.22;5889482;23;20404;-71
2022/08/26 09:21:40;;;;;;;6.28;1.30;;;;;;;25.14;53.53;101879.88;5931325;23;20531;-71
2022/08/26 09:24:06;;;;;;;6.40;1.27;;;;;;;24.65;54.41;101875.97;5973533;23;20069;-71
2022/08/26 09:26:37;;;;;;;6.63;1.25;;;;;;;24.90;54.22;101874.38;6018047;23;20121;-69
2022/08/26 09:29:07;;;;;;;4.20;1.30;;;;;;;25.23;53.38;101869.81;6011682;23;20027;-70
2022/08/26 09:31:36;;;;;;;10.30;1.63;;;;;;;25.42;53.11;101862.97;6018052;23;20023;-69
2022/08/26 09:34:12;;;;;;;3.78;1.20;;;;;;;25.41;52.50;101865.66;6012534;23;20014;-72
2022/08/26 09:36:40;;;;;;;7.38;1.42;;;;;;;25.09;53.76;101869.34;6008808;23;20006;-71
2022/08/26 09:39:44;;;;;;;7.32;1.17;;;;;;;24.98;53.39;101869.69;6019132;23;20011;-71
2022/08/26 09:42:21;;;;;;;6.20;1.60;;;;;;;24.37;55.41;101883.91;5926437;23;20052;-72
2022/08/26 09:44:52;;;;;;;4.97;1.52;;;;;;;24.53;54.87;101889.66;5999401;23;20042;-70
2022/08/26 09:47:24;;;;;;;5.50;1.45;;;;;;;24.46;55.23;101882.75;6010638;23;20011;-70
2022/08/26 09:50:05;;;;;;;7.03;1.30;;;;;;;24.51;55.61;101888.84;6017203;23;20014;-70
2022/08/26 09:52:34;;;;;;;5.70;1.40;;;;;;;24.13;54.75;101881.88;6012061;23;20014;-71
2022/08/26 09:55:08;;;;;;;6.53;1.40;;;;;;;24.49;54.43;101896.88;6001197;23;21810;-70
2022/08/26 09:57:44;;;;;;;4.00;1.20;;;;;;;24.74;53.86;101896.19;6022927;23;20017;-71
2022/08/26 10:01:00;;;;;;;6.90;1.73;;;;;;;24.60;53.67;101902.78;5995245;23;20062;-71
2022/08/26 10:03:35;;;;;;;8.27;1.35;;;;;;;24.67;52.44;101898.16;6000921;23;20350;-71
2022/08/26 10:06:06;;;;;;;5.80;1.27;;;;;;;24.80;52.04;101885.34;5985476;23;20723;-70
2022/08/26 10:08:41;;;;;;;5.13;1.40;;;;;;;24.70;52.64;101884.75;6010037;23;20109;-71
2022/08/26 10:55:01;;;;;;;3.67;1.00;;;;;;;26.16;47.27;101888.09;4959639;27;21227;-57
2022/08/26 10:57:51;;;;;;;4.20;1.13;;;;;;;25.91;48.79;101885.38;4947233;28;20133;-58
2022/08/26 11:03:21;;;;;;;7.70;1.58;;;;;;;26.33;47.70;101895.53;4974320;28;20066;-79
2022/08/26 11:06:22;;;;;;;6.65;1.20;;;;;;;26.50;47.55;101888.63;5041957;28;20426;-78
2022/08/26 11:08:56;;;;;;;5.70;1.25;;;;;;;26.55;47.75;101891.13;5032458;28;20060;-77
2022/08/26 11:18:14;;;;;;;8.57;1.50;;;;;;;26.28;47.80;101886.81;4919755;28;20030;-59
2022/08/26 11:20:44;;;;;;;6.88;1.48;;;;;;;26.57;46.41;101886.59;4939572;28;20109;-58
2022/08/26 11:23:21;;;;;;;3.55;1.20;;;;;;;26.27;47.11;101895.75;4931644;28;20535;-60
2022/08/26 11:26:08;;;;;;;5.50;1.30;;;;;;;26.55;46.25;101894.69;4963302;28;20030;-57
2022/08/26 11:28:43;;;;;;;5.07;1.42;;;;;;;26.87;45.54;101888.13;4967136;28;20026;-62
2022/08/26 11:31:37;;;;;;;7.32;1.20;;;;;;;26.92;45.50;101893.34;4921018;28;20592;-58
2022/08/26 11:34:08;;;;;;;4.35;1.45;;;;;;;27.45;44.71;101889.41;4913514;28;20059;-58
2022/08/26 11:36:40;;;;;;;6.35;1.30;;;;;;;27.31;45.51;101896.25;4942464;28;20042;-58
2022/08/26 11:39:30;;;;;;;4.43;1.15;;;;;;;27.36;44.18;101889.78;4931606;28;20026;-59
2022/08/26 11:42:13;;;;;;;9.32;1.20;;;;;;;27.25;44.10;101893.81;4939677;28;20132;-58
2022/08/26 11:44:42;;;;;;;5.65;1.23;;;;;;;27.27;44.72;101889.25;4943922;28;20331;-58
2022/08/26 11:47:11;;;;;;;4.30;1.13;;;;;;;26.85;44.19;101887.31;4944585;28;20436;-57
2022/08/26 11:49:37;;;;;;;6.13;1.50;;;;;;;26.85;44.45;101894.47;4940330;28;20045;-58
2022/08/26 11:52:27;;;;;;;6.15;1.50;;;;;;;26.89;45.15;101889.00;4936772;28;20659;-58
2022/08/26 11:55:08;;;;;;;5.90;1.30;;;;;;;27.04;44.52;101884.81;4934272;28;20047;-58
2022/08/26 11:57:42;;;;;;;7.25;1.30;;;;;;;27.06;45.14;101880.28;4936198;28;20520;-58
2022/08/26 12:00:17;;;;;;;4.28;1.20;;;;;;;27.56;43.69;101878.28;4942044;28;20039;-58
2022/08/26 12:02:44;;;;;;;5.05;1.10;;;;;;;27.58;43.04;101880.88;4945601;28;20489;-58
2022/08/26 12:05:16;;;;;;;4.28;1.00;;;;;;;26.67;45.71;101878.19;4916407;28;20027;-59
2022/08/26 12:07:42;;;;;;;4.80;1.10;;;;;;;27.08;43.64;101881.09;4919590;28;20052;-58
2022/08/26 12:10:09;;;;;;;3.95;1.17;;;;;;;27.07;44.51;101871.34;4929208;28;20555;-58
2022/08/26 12:12:38;;;;;;;5.32;1.20;;;;;;;27.19;44.61;101886.91;4933278;28;20050;-58
2022/08/26 12:15:08;;;;;;;6.80;1.20;;;;;;;26.63;45.61;101881.03;4913576;28;20423;-57
2022/08/26 12:17:34;;;;;;;5.22;1.23;;;;;;;26.98;44.50;101875.22;4912500;28;20059;-58
2022/08/26 12:19:59;;;;;;;5.60;1.20;;;;;;;26.65;43.82;101869.31;4927346;28;20026;-58
2022/08/26 12:22:28;;;;;;;5.70;1.30;;;;;;;26.40;44.85;101881.88;4927218;28;20451;-57
2022/08/26 12:25:00;;;;;;;4.55;1.02;;;;;;;26.86;43.85;101874.81;4929460;28;20031;-59
2022/08/26 12:27:30;;;;;;;6.30;1.25;;;;;;;27.22;44.09;101878.75;4923124;28;20506;-58
2022/08/26 12:30:03;;;;;;;4.80;1.00;;;;;;;27.23;42.93;101882.28;4927528;28;20050;-58
2022/08/26 12:32:30;;;;;;;4.33;1.20;;;;;;;26.69;43.75;101882.59;4933434;28;20050;-58
2022/08/26 12:34:56;;;;;;;4.45;1.20;;;;;;;26.74;43.97;101889.53;4922565;28;20118;-57
2022/08/26 12:37:23;;;;;;;6.05;1.33;;;;;;;27.00;43.53;101873.38;4921160;28;20061;-57